sensor_id;sensor_type;location;lat;lon;timestamp;temperature;humidity
26164;DHT22;13914;48.178;11.716;2023-04-24T00:00:33;11.80;41.60
26164;DHT22;13914;48.178;11.716;2023-04-24T00:02:59;11.90;42.00
26164;DHT22;13914;48.178;11.716;2023-04-24T00:05:25;11.80;41.60
26164;DHT22;13914;48.178;11.716;2023-04-24T00:07:50;11.80;42.70
26164;DHT22;13914;48.178;11.716;2023-04-24T00:10:18;11.80;41.90
26164;DHT22;13914;48.178;11.716;2023-04-24T00:12:44;11.70;41.80
26164;DHT22;13914;48.178;11.716;2023-04-24T00:15:10;11.80;41.70
26164;DHT22;13914;48.178;11.716;2023-04-24T00:17:36;11.80;41.60
26164;DHT22;13914;48.178;11.716;2023-04-24T00:20:02;11.70;41.20
26164;DHT22;13914;48.178;11.716;2023-04-24T00:22:30;11.70;41.70
26164;DHT22;13914;48.178;11.716;2023-04-24T00:24:56;11.70;41.70
26164;DHT22;13914;48.178;11.716;2023-04-24T00:27:22;11.70;41.70
26164;DHT22;13914;48.178;11.716;2023-04-24T00:29:48;11.70;41.70
26164;DHT22;13914;48.178;11.716;2023-04-24T00:32:14;11.70;41.60
26164;DHT22;13914;48.178;11.716;2023-04-24T00:34:40;11.60;41.60
26164;DHT22;13914;48.178;11.716;2023-04-24T00:37:06;11.60;41.60
26164;DHT22;13914;48.178;11.716;2023-04-24T00:39:32;11.60;41.90
26164;DHT22;13914;48.178;11.716;2023-04-24T00:41:57;11.50;41.80
26164;DHT22;13914;48.178;11.716;2023-04-24T00:44:23;11.50;41.50
26164;DHT22;13914;48.178;11.716;2023-04-24T00:46:49;11.50;41.70
26164;DHT22;13914;48.178;11.716;2023-04-24T00:49:20;11.50;41.60
26164;DHT22;13914;48.178;11.716;2023-04-24T00:51:46;11.50;41.90
26164;DHT22;13914;48.178;11.716;2023-04-24T00:54:12;11.50;41.70
26164;DHT22;13914;48.178;11.716;2023-04-24T00:56:39;11.40;41.80
26164;DHT22;13914;48.178;11.716;2023-04-24T00:59:05;11.40;41.60
26164;DHT22;13914;48.178;11.716;2023-04-24T01:01:31;11.40;42.10
26164;DHT22;13914;48.178;11.716;2023-04-24T01:03:58;11.40;41.90
26164;DHT22;13914;48.178;11.716;2023-04-24T01:06:25;11.40;41.50
26164;DHT22;13914;48.178;11.716;2023-04-24T01:08:53;11.40;41.80
26164;DHT22;13914;48.178;11.716;2023-04-24T01:11:19;11.40;41.70
26164;DHT22;13914;48.178;11.716;2023-04-24T01:13:47;11.30;41.90
26164;DHT22;13914;48.178;11.716;2023-04-24T01:16:13;11.30;42.20
26164;DHT22;13914;48.178;11.716;2023-04-24T01:18:40;11.30;42.30
26164;DHT22;13914;48.178;11.716;2023-04-24T01:21:06;11.30;42.20
26164;DHT22;13914;48.178;11.716;2023-04-24T01:23:33;11.20;42.10
26164;DHT22;13914;48.178;11.716;2023-04-24T01:26:00;11.20;42.30
26164;DHT22;13914;48.178;11.716;2023-04-24T01:28:26;11.20;42.40
26164;DHT22;13914;48.178;11.716;2023-04-24T01:30:52;11.20;42.60
26164;DHT22;13914;48.178;11.716;2023-04-24T01:33:18;11.20;42.30
26164;DHT22;13914;48.178;11.716;2023-04-24T01:35:43;11.10;42.20
26164;DHT22;13914;48.178;11.716;2023-04-24T01:38:09;11.10;42.30
26164;DHT22;13914;48.178;11.716;2023-04-24T01:40:36;11.10;42.30
26164;DHT22;13914;48.178;11.716;2023-04-24T01:43:01;11.10;42.20
26164;DHT22;13914;48.178;11.716;2023-04-24T01:45:27;11.10;42.20
26164;DHT22;13914;48.178;11.716;2023-04-24T01:47:53;11.10;42.10
26164;DHT22;13914;48.178;11.716;2023-04-24T01:50:19;11.00;42.30
26164;DHT22;13914;48.178;11.716;2023-04-24T01:52:44;11.00;42.20
26164;DHT22;13914;48.178;11.716;2023-04-24T01:55:10;11.00;42.20
26164;DHT22;13914;48.178;11.716;2023-04-24T01:57:36;11.00;42.20
26164;DHT22;13914;48.178;11.716;2023-04-24T02:00:02;11.00;42.20
26164;DHT22;13914;48.178;11.716;2023-04-24T02:02:30;11.00;42.20
26164;DHT22;13914;48.178;11.716;2023-04-24T02:04:56;10.90;42.20
26164;DHT22;13914;48.178;11.716;2023-04-24T02:07:22;10.90;42.10
26164;DHT22;13914;48.178;11.716;2023-04-24T02:09:47;10.90;42.10
26164;DHT22;13914;48.178;11.716;2023-04-24T02:12:14;10.90;42.30
26164;DHT22;13914;48.178;11.716;2023-04-24T02:14:40;10.90;42.20
26164;DHT22;13914;48.178;11.716;2023-04-24T02:17:07;10.80;42.00
26164;DHT22;13914;48.178;11.716;2023-04-24T02:19:33;10.80;42.30
26164;DHT22;13914;48.178;11.716;2023-04-24T02:21:58;10.80;41.90
26164;DHT22;13914;48.178;11.716;2023-04-24T02:24:24;10.80;42.10
26164;DHT22;13914;48.178;11.716;2023-04-24T02:26:50;10.80;42.30
26164;DHT22;13914;48.178;11.716;2023-04-24T02:29:15;10.80;42.30
26164;DHT22;13914;48.178;11.716;2023-04-24T02:31:41;10.70;42.10
26164;DHT22;13914;48.178;11.716;2023-04-24T02:34:07;10.70;42.10
26164;DHT22;13914;48.178;11.716;2023-04-24T02:36:32;10.70;42.70
26164;DHT22;13914;48.178;11.716;2023-04-24T02:38:58;10.70;42.50
26164;DHT22;13914;48.178;11.716;2023-04-24T02:41:24;10.70;42.20
26164;DHT22;13914;48.178;11.716;2023-04-24T02:43:49;10.60;42.10
26164;DHT22;13914;48.178;11.716;2023-04-24T02:46:15;10.60;42.10
26164;DHT22;13914;48.178;11.716;2023-04-24T02:48:41;10.60;42.00
26164;DHT22;13914;48.178;11.716;2023-04-24T02:51:07;10.60;42.40
26164;DHT22;13914;48.178;11.716;2023-04-24T02:53:32;10.60;42.30
26164;DHT22;13914;48.178;11.716;2023-04-24T02:55:58;10.60;42.50
26164;DHT22;13914;48.178;11.716;2023-04-24T02:58:24;10.50;42.40
26164;DHT22;13914;48.178;11.716;2023-04-24T03:00:53;10.50;42.00
26164;DHT22;13914;48.178;11.716;2023-04-24T03:03:19;10.50;42.10
26164;DHT22;13914;48.178;11.716;2023-04-24T03:05:45;10.50;42.40
26164;DHT22;13914;48.178;11.716;2023-04-24T03:08:11;10.50;42.10
26164;DHT22;13914;48.178;11.716;2023-04-24T03:10:36;10.50;42.50
26164;DHT22;13914;48.178;11.716;2023-04-24T03:13:02;10.40;42.10
26164;DHT22;13914;48.178;11.716;2023-04-24T03:15:28;10.50;42.50
26164;DHT22;13914;48.178;11.716;2023-04-24T03:17:54;10.40;42.60
26164;DHT22;13914;48.178;11.716;2023-04-24T03:20:20;10.40;42.20
26164;DHT22;13914;48.178;11.716;2023-04-24T03:22:46;10.40;42.80
26164;DHT22;13914;48.178;11.716;2023-04-24T03:25:12;10.40;42.70
26164;DHT22;13914;48.178;11.716;2023-04-24T03:27:37;10.40;42.50
26164;DHT22;13914;48.178;11.716;2023-04-24T03:30:05;10.40;42.80
26164;DHT22;13914;48.178;11.716;2023-04-24T03:32:33;10.30;42.20
26164;DHT22;13914;48.178;11.716;2023-04-24T03:34:59;10.30;42.60
26164;DHT22;13914;48.178;11.716;2023-04-24T03:37:25;10.30;42.80
26164;DHT22;13914;48.178;11.716;2023-04-24T03:39:51;10.30;42.90
26164;DHT22;13914;48.178;11.716;2023-04-24T03:42:17;10.30;43.10
26164;DHT22;13914;48.178;11.716;2023-04-24T03:44:43;10.30;43.20
26164;DHT22;13914;48.178;11.716;2023-04-24T03:47:09;10.30;43.10
26164;DHT22;13914;48.178;11.716;2023-04-24T03:49:35;10.30;43.40
26164;DHT22;13914;48.178;11.716;2023-04-24T03:52:00;10.30;43.10
26164;DHT22;13914;48.178;11.716;2023-04-24T03:54:26;10.20;43.50
26164;DHT22;13914;48.178;11.716;2023-04-24T03:56:52;10.20;43.10
26164;DHT22;13914;48.178;11.716;2023-04-24T03:59:18;10.20;42.60
26164;DHT22;13914;48.178;11.716;2023-04-24T04:01:44;10.20;42.60
26164;DHT22;13914;48.178;11.716;2023-04-24T04:04:10;10.20;43.00
26164;DHT22;13914;48.178;11.716;2023-04-24T04:06:36;10.20;44.30
26164;DHT22;13914;48.178;11.716;2023-04-24T04:09:02;10.20;44.10
26164;DHT22;13914;48.178;11.716;2023-04-24T04:11:28;10.20;43.30
26164;DHT22;13914;48.178;11.716;2023-04-24T04:13:54;10.20;43.30
26164;DHT22;13914;48.178;11.716;2023-04-24T04:16:20;10.10;43.00
26164;DHT22;13914;48.178;11.716;2023-04-24T04:18:45;10.10;43.00
26164;DHT22;13914;48.178;11.716;2023-04-24T04:21:11;10.10;43.00
26164;DHT22;13914;48.178;11.716;2023-04-24T04:23:37;10.10;43.00
26164;DHT22;13914;48.178;11.716;2023-04-24T04:26:03;10.10;43.00
26164;DHT22;13914;48.178;11.716;2023-04-24T04:28:29;10.10;42.80
26164;DHT22;13914;48.178;11.716;2023-04-24T04:30:57;10.10;43.00
26164;DHT22;13914;48.178;11.716;2023-04-24T04:33:23;10.10;43.00
26164;DHT22;13914;48.178;11.716;2023-04-24T04:35:49;10.10;42.90
26164;DHT22;13914;48.178;11.716;2023-04-24T04:38:17;10.10;43.00
26164;DHT22;13914;48.178;11.716;2023-04-24T04:40:44;10.00;42.90
26164;DHT22;13914;48.178;11.716;2023-04-24T04:43:10;10.00;43.20
26164;DHT22;13914;48.178;11.716;2023-04-24T04:45:39;10.00;43.00
26164;DHT22;13914;48.178;11.716;2023-04-24T04:48:06;10.00;43.40
26164;DHT22;13914;48.178;11.716;2023-04-24T04:50:38;10.00;43.00
26164;DHT22;13914;48.178;11.716;2023-04-24T04:53:04;10.00;43.10
26164;DHT22;13914;48.178;11.716;2023-04-24T04:55:30;10.00;43.00
26164;DHT22;13914;48.178;11.716;2023-04-24T04:57:56;9.90;42.70
26164;DHT22;13914;48.178;11.716;2023-04-24T05:00:22;10.00;43.30
26164;DHT22;13914;48.178;11.716;2023-04-24T05:02:50;10.00;43.40
26164;DHT22;13914;48.178;11.716;2023-04-24T05:05:16;9.90;43.10
26164;DHT22;13914;48.178;11.716;2023-04-24T05:07:43;9.90;43.00
26164;DHT22;13914;48.178;11.716;2023-04-24T05:10:09;9.90;43.20
26164;DHT22;13914;48.178;11.716;2023-04-24T05:12:35;9.90;42.90
26164;DHT22;13914;48.178;11.716;2023-04-24T05:15:00;9.90;42.90
26164;DHT22;13914;48.178;11.716;2023-04-24T05:17:28;10.00;42.90
26164;DHT22;13914;48.178;11.716;2023-04-24T05:19:54;9.90;42.80
26164;DHT22;13914;48.178;11.716;2023-04-24T05:22:20;9.90;42.80
26164;DHT22;13914;48.178;11.716;2023-04-24T05:24:46;9.90;42.70
26164;DHT22;13914;48.178;11.716;2023-04-24T05:27:12;9.90;42.80
26164;DHT22;13914;48.178;11.716;2023-04-24T05:29:38;9.90;42.70
26164;DHT22;13914;48.178;11.716;2023-04-24T05:32:04;9.90;42.90
26164;DHT22;13914;48.178;11.716;2023-04-24T05:34:30;9.90;42.80
26164;DHT22;13914;48.178;11.716;2023-04-24T05:36:55;9.90;43.00
26164;DHT22;13914;48.178;11.716;2023-04-24T05:39:21;9.90;42.80
26164;DHT22;13914;48.178;11.716;2023-04-24T05:41:47;9.90;42.80
26164;DHT22;13914;48.178;11.716;2023-04-24T05:44:12;9.90;42.70
26164;DHT22;13914;48.178;11.716;2023-04-24T05:46:38;9.90;42.70
26164;DHT22;13914;48.178;11.716;2023-04-24T05:49:04;9.90;42.80
26164;DHT22;13914;48.178;11.716;2023-04-24T05:51:29;9.90;42.80
26164;DHT22;13914;48.178;11.716;2023-04-24T05:53:56;10.00;43.50
26164;DHT22;13914;48.178;11.716;2023-04-24T05:56:22;9.90;43.00
26164;DHT22;13914;48.178;11.716;2023-04-24T05:58:48;10.00;42.90
26164;DHT22;13914;48.178;11.716;2023-04-24T06:01:14;10.00;43.00
26164;DHT22;13914;48.178;11.716;2023-04-24T06:03:42;10.00;43.00
26164;DHT22;13914;48.178;11.716;2023-04-24T06:06:08;10.00;43.10
26164;DHT22;13914;48.178;11.716;2023-04-24T06:08:34;10.00;42.90
26164;DHT22;13914;48.178;11.716;2023-04-24T06:11:00;10.00;43.20
26164;DHT22;13914;48.178;11.716;2023-04-24T06:13:26;10.00;42.70
26164;DHT22;13914;48.178;11.716;2023-04-24T06:15:52;10.00;43.00
26164;DHT22;13914;48.178;11.716;2023-04-24T06:18:18;10.00;42.80
26164;DHT22;13914;48.178;11.716;2023-04-24T06:20:46;10.00;42.70
26164;DHT22;13914;48.178;11.716;2023-04-24T06:23:12;10.10;42.80
26164;DHT22;13914;48.178;11.716;2023-04-24T06:25:38;10.10;43.10
26164;DHT22;13914;48.178;11.716;2023-04-24T06:28:03;10.10;43.50
26164;DHT22;13914;48.178;11.716;2023-04-24T06:30:30;10.10;43.30
26164;DHT22;13914;48.178;11.716;2023-04-24T06:32:56;10.10;43.50
26164;DHT22;13914;48.178;11.716;2023-04-24T06:35:21;10.10;43.10
26164;DHT22;13914;48.178;11.716;2023-04-24T06:37:47;10.10;43.50
26164;DHT22;13914;48.178;11.716;2023-04-24T06:40:13;10.20;44.10
26164;DHT22;13914;48.178;11.716;2023-04-24T06:42:38;10.20;43.20
26164;DHT22;13914;48.178;11.716;2023-04-24T06:45:04;10.20;43.60
26164;DHT22;13914;48.178;11.716;2023-04-24T06:47:31;10.20;43.40
26164;DHT22;13914;48.178;11.716;2023-04-24T06:49:56;10.20;43.00
26164;DHT22;13914;48.178;11.716;2023-04-24T06:52:22;10.20;43.30
26164;DHT22;13914;48.178;11.716;2023-04-24T06:54:48;10.30;43.60
26164;DHT22;13914;48.178;11.716;2023-04-24T06:57:13;10.30;43.30
26164;DHT22;13914;48.178;11.716;2023-04-24T06:59:41;10.30;43.90
26164;DHT22;13914;48.178;11.716;2023-04-24T07:02:07;10.40;43.40
26164;DHT22;13914;48.178;11.716;2023-04-24T07:04:32;10.40;44.20
26164;DHT22;13914;48.178;11.716;2023-04-24T07:06:58;10.40;44.10
26164;DHT22;13914;48.178;11.716;2023-04-24T07:09:25;10.40;43.50
26164;DHT22;13914;48.178;11.716;2023-04-24T07:11:53;10.50;43.90
26164;DHT22;13914;48.178;11.716;2023-04-24T07:14:22;10.40;43.50
26164;DHT22;13914;48.178;11.716;2023-04-24T07:16:48;10.60;43.50
26164;DHT22;13914;48.178;11.716;2023-04-24T07:19:13;10.60;44.90
26164;DHT22;13914;48.178;11.716;2023-04-24T07:21:39;10.60;44.30
26164;DHT22;13914;48.178;11.716;2023-04-24T07:24:05;10.70;43.90
26164;DHT22;13914;48.178;11.716;2023-04-24T07:26:34;10.80;43.80
26164;DHT22;13914;48.178;11.716;2023-04-24T07:29:00;10.80;44.00
26164;DHT22;13914;48.178;11.716;2023-04-24T07:31:26;10.80;44.70
26164;DHT22;13914;48.178;11.716;2023-04-24T07:33:52;10.90;43.90
26164;DHT22;13914;48.178;11.716;2023-04-24T07:36:18;11.00;43.40
26164;DHT22;13914;48.178;11.716;2023-04-24T07:38:44;11.00;43.80
26164;DHT22;13914;48.178;11.716;2023-04-24T07:41:13;11.10;44.00
26164;DHT22;13914;48.178;11.716;2023-04-24T07:43:39;11.10;44.10
26164;DHT22;13914;48.178;11.716;2023-04-24T07:46:05;11.20;44.00
26164;DHT22;13914;48.178;11.716;2023-04-24T07:48:31;11.30;43.80
26164;DHT22;13914;48.178;11.716;2023-04-24T07:50:57;11.40;44.30
26164;DHT22;13914;48.178;11.716;2023-04-24T07:53:23;11.40;43.50
26164;DHT22;13914;48.178;11.716;2023-04-24T07:55:48;11.50;43.60
26164;DHT22;13914;48.178;11.716;2023-04-24T07:58:14;11.50;43.60
26164;DHT22;13914;48.178;11.716;2023-04-24T08:00:40;11.50;43.50
26164;DHT22;13914;48.178;11.716;2023-04-24T08:03:06;11.60;42.80
26164;DHT22;13914;48.178;11.716;2023-04-24T08:05:31;11.70;43.00
26164;DHT22;13914;48.178;11.716;2023-04-24T08:07:58;11.70;42.60
26164;DHT22;13914;48.178;11.716;2023-04-24T08:10:23;11.70;42.70
26164;DHT22;13914;48.178;11.716;2023-04-24T08:12:50;11.70;42.50
26164;DHT22;13914;48.178;11.716;2023-04-24T08:15:16;11.80;42.70
26164;DHT22;13914;48.178;11.716;2023-04-24T08:17:41;11.80;42.70
26164;DHT22;13914;48.178;11.716;2023-04-24T08:20:08;11.80;42.40
26164;DHT22;13914;48.178;11.716;2023-04-24T08:22:39;11.90;42.30
26164;DHT22;13914;48.178;11.716;2023-04-24T08:25:05;11.90;42.30
26164;DHT22;13914;48.178;11.716;2023-04-24T08:27:31;11.90;42.40
26164;DHT22;13914;48.178;11.716;2023-04-24T08:29:57;12.00;42.30
26164;DHT22;13914;48.178;11.716;2023-04-24T08:32:24;12.00;42.10
26164;DHT22;13914;48.178;11.716;2023-04-24T08:34:49;12.00;42.30
26164;DHT22;13914;48.178;11.716;2023-04-24T08:37:17;12.00;42.20
26164;DHT22;13914;48.178;11.716;2023-04-24T08:39:43;12.00;41.70
26164;DHT22;13914;48.178;11.716;2023-04-24T08:42:09;12.00;41.90
26164;DHT22;13914;48.178;11.716;2023-04-24T08:44:36;12.00;42.00
26164;DHT22;13914;48.178;11.716;2023-04-24T08:47:02;12.10;41.60
26164;DHT22;13914;48.178;11.716;2023-04-24T08:49:28;12.00;41.80
26164;DHT22;13914;48.178;11.716;2023-04-24T08:51:54;12.00;42.10
26164;DHT22;13914;48.178;11.716;2023-04-24T08:54:20;12.00;42.60
26164;DHT22;13914;48.178;11.716;2023-04-24T08:56:47;11.90;43.10
26164;DHT22;13914;48.178;11.716;2023-04-24T08:59:16;11.90;43.00
26164;DHT22;13914;48.178;11.716;2023-04-24T09:01:42;11.90;42.60
26164;DHT22;13914;48.178;11.716;2023-04-24T09:04:09;11.90;42.30
26164;DHT22;13914;48.178;11.716;2023-04-24T09:06:36;11.80;41.60
26164;DHT22;13914;48.178;11.716;2023-04-24T09:09:02;11.80;41.10
26164;DHT22;13914;48.178;11.716;2023-04-24T09:11:30;11.80;41.60
26164;DHT22;13914;48.178;11.716;2023-04-24T09:13:56;11.80;41.10
26164;DHT22;13914;48.178;11.716;2023-04-24T09:16:22;11.80;40.70
26164;DHT22;13914;48.178;11.716;2023-04-24T09:18:51;11.70;39.30
26164;DHT22;13914;48.178;11.716;2023-04-24T09:21:17;11.80;40.10
26164;DHT22;13914;48.178;11.716;2023-04-24T09:23:46;11.70;39.30
26164;DHT22;13914;48.178;11.716;2023-04-24T09:26:11;11.70;38.70
26164;DHT22;13914;48.178;11.716;2023-04-24T09:28:39;11.70;39.40
26164;DHT22;13914;48.178;11.716;2023-04-24T09:31:12;11.70;39.30
26164;DHT22;13914;48.178;11.716;2023-04-24T09:33:53;11.80;39.10
26164;DHT22;13914;48.178;11.716;2023-04-24T09:36:19;11.80;38.80
26164;DHT22;13914;48.178;11.716;2023-04-24T09:38:53;11.80;39.10
26164;DHT22;13914;48.178;11.716;2023-04-24T09:41:23;11.80;38.40
26164;DHT22;13914;48.178;11.716;2023-04-24T09:43:49;11.90;38.90
26164;DHT22;13914;48.178;11.716;2023-04-24T09:46:15;11.90;38.80
26164;DHT22;13914;48.178;11.716;2023-04-24T09:48:43;11.90;38.10
26164;DHT22;13914;48.178;11.716;2023-04-24T09:51:09;11.90;38.70
26164;DHT22;13914;48.178;11.716;2023-04-24T09:53:38;12.00;39.00
26164;DHT22;13914;48.178;11.716;2023-04-24T09:56:09;12.00;38.40
26164;DHT22;13914;48.178;11.716;2023-04-24T09:58:36;12.10;38.50
26164;DHT22;13914;48.178;11.716;2023-04-24T10:01:02;12.10;38.30
26164;DHT22;13914;48.178;11.716;2023-04-24T10:03:31;12.20;37.70
26164;DHT22;13914;48.178;11.716;2023-04-24T10:05:58;12.20;37.90
26164;DHT22;13914;48.178;11.716;2023-04-24T10:08:25;12.30;37.80
26164;DHT22;13914;48.178;11.716;2023-04-24T10:10:51;12.20;36.90
26164;DHT22;13914;48.178;11.716;2023-04-24T10:13:17;12.40;37.80
26164;DHT22;13914;48.178;11.716;2023-04-24T10:15:43;12.30;37.10
26164;DHT22;13914;48.178;11.716;2023-04-24T10:18:10;12.40;37.60
26164;DHT22;13914;48.178;11.716;2023-04-24T10:20:37;12.40;36.60
26164;DHT22;13914;48.178;11.716;2023-04-24T10:23:04;12.50;37.60
26164;DHT22;13914;48.178;11.716;2023-04-24T10:25:31;12.50;37.00
26164;DHT22;13914;48.178;11.716;2023-04-24T10:27:58;12.60;37.00
26164;DHT22;13914;48.178;11.716;2023-04-24T10:30:26;12.50;36.30
26164;DHT22;13914;48.178;11.716;2023-04-24T10:32:53;12.60;36.90
26164;DHT22;13914;48.178;11.716;2023-04-24T10:35:19;12.60;37.00
26164;DHT22;13914;48.178;11.716;2023-04-24T10:38:09;12.70;37.20
26164;DHT22;13914;48.178;11.716;2023-04-24T10:40:35;12.80;37.00
26164;DHT22;13914;48.178;11.716;2023-04-24T10:43:04;12.80;37.10
26164;DHT22;13914;48.178;11.716;2023-04-24T10:45:33;12.90;37.40
26164;DHT22;13914;48.178;11.716;2023-04-24T10:50:27;13.00;36.80
26164;DHT22;13914;48.178;11.716;2023-04-24T10:53:04;13.10;36.40
26164;DHT22;13914;48.178;11.716;2023-04-24T10:55:44;13.10;36.40
26164;DHT22;13914;48.178;11.716;2023-04-24T10:58:11;13.10;35.90
26164;DHT22;13914;48.178;11.716;2023-04-24T11:00:38;13.20;36.20
26164;DHT22;13914;48.178;11.716;2023-04-24T11:03:22;13.20;36.40
26164;DHT22;13914;48.178;11.716;2023-04-24T11:05:49;13.20;37.00
26164;DHT22;13914;48.178;11.716;2023-04-24T11:08:21;13.10;37.60
26164;DHT22;13914;48.178;11.716;2023-04-24T11:10:55;12.90;37.60
26164;DHT22;13914;48.178;11.716;2023-04-24T11:13:27;12.90;39.00
26164;DHT22;13914;48.178;11.716;2023-04-24T11:16:14;12.90;38.90
26164;DHT22;13914;48.178;11.716;2023-04-24T11:18:50;12.90;38.70
26164;DHT22;13914;48.178;11.716;2023-04-24T11:21:19;12.90;38.70
26164;DHT22;13914;48.178;11.716;2023-04-24T11:23:46;13.00;38.80
26164;DHT22;13914;48.178;11.716;2023-04-24T11:26:12;13.00;38.80
26164;DHT22;13914;48.178;11.716;2023-04-24T11:28:49;13.00;38.80
26164;DHT22;13914;48.178;11.716;2023-04-24T11:36:34;13.00;39.40
26164;DHT22;13914;48.178;11.716;2023-04-24T11:39:00;13.00;38.90
26164;DHT22;13914;48.178;11.716;2023-04-24T11:41:26;13.00;38.50
26164;DHT22;13914;48.178;11.716;2023-04-24T11:43:52;12.90;38.80
26164;DHT22;13914;48.178;11.716;2023-04-24T11:46:20;12.90;39.40
26164;DHT22;13914;48.178;11.716;2023-04-24T11:48:46;12.90;39.70
26164;DHT22;13914;48.178;11.716;2023-04-24T11:51:15;13.00;39.90
26164;DHT22;13914;48.178;11.716;2023-04-24T11:53:40;13.00;39.80
26164;DHT22;13914;48.178;11.716;2023-04-24T11:56:08;13.10;39.70
26164;DHT22;13914;48.178;11.716;2023-04-24T11:58:34;13.10;39.60
26164;DHT22;13914;48.178;11.716;2023-04-24T12:01:01;13.10;38.40
26164;DHT22;13914;48.178;11.716;2023-04-24T12:03:27;13.10;38.70
26164;DHT22;13914;48.178;11.716;2023-04-24T12:05:53;13.20;38.10
26164;DHT22;13914;48.178;11.716;2023-04-24T12:08:31;13.30;38.40
26164;DHT22;13914;48.178;11.716;2023-04-24T12:10:57;13.30;37.90
26164;DHT22;13914;48.178;11.716;2023-04-24T12:13:25;13.40;38.10
26164;DHT22;13914;48.178;11.716;2023-04-24T12:15:51;13.40;37.50
26164;DHT22;13914;48.178;11.716;2023-04-24T12:18:17;13.50;37.40
26164;DHT22;13914;48.178;11.716;2023-04-24T12:20:42;13.60;38.60
26164;DHT22;13914;48.178;11.716;2023-04-24T12:23:08;13.70;37.50
26164;DHT22;13914;48.178;11.716;2023-04-24T12:25:34;13.70;37.10
26164;DHT22;13914;48.178;11.716;2023-04-24T12:30:29;13.80;36.60
26164;DHT22;13914;48.178;11.716;2023-04-24T12:32:59;13.80;36.10
26164;DHT22;13914;48.178;11.716;2023-04-24T12:35:28;13.90;37.10
26164;DHT22;13914;48.178;11.716;2023-04-24T12:38:10;14.10;37.00
26164;DHT22;13914;48.178;11.716;2023-04-24T12:40:38;14.10;36.70
26164;DHT22;13914;48.178;11.716;2023-04-24T12:45:59;14.20;35.40
26164;DHT22;13914;48.178;11.716;2023-04-24T12:48:28;14.20;35.50
26164;DHT22;13914;48.178;11.716;2023-04-24T12:50:54;14.20;34.60
26164;DHT22;13914;48.178;11.716;2023-04-24T12:53:21;14.30;34.30
26164;DHT22;13914;48.178;11.716;2023-04-24T12:55:47;14.30;33.60
26164;DHT22;13914;48.178;11.716;2023-04-24T12:58:20;14.30;32.50
26164;DHT22;13914;48.178;11.716;2023-04-24T13:00:46;14.30;31.90
26164;DHT22;13914;48.178;11.716;2023-04-24T13:03:12;14.30;31.60
26164;DHT22;13914;48.178;11.716;2023-04-24T13:05:38;14.40;32.10
26164;DHT22;13914;48.178;11.716;2023-04-24T13:08:04;14.40;31.70
26164;DHT22;13914;48.178;11.716;2023-04-24T13:10:30;14.40;31.00
26164;DHT22;13914;48.178;11.716;2023-04-24T13:12:56;14.40;30.50
26164;DHT22;13914;48.178;11.716;2023-04-24T13:15:22;14.30;30.00
26164;DHT22;13914;48.178;11.716;2023-04-24T13:17:47;14.30;30.90
26164;DHT22;13914;48.178;11.716;2023-04-24T13:20:13;14.30;31.00
26164;DHT22;13914;48.178;11.716;2023-04-24T13:22:39;14.20;30.00
26164;DHT22;13914;48.178;11.716;2023-04-24T13:25:05;14.20;30.30
26164;DHT22;13914;48.178;11.716;2023-04-24T13:27:31;14.10;30.30
26164;DHT22;13914;48.178;11.716;2023-04-24T13:30:00;14.10;30.40
26164;DHT22;13914;48.178;11.716;2023-04-24T13:32:25;14.00;31.60
26164;DHT22;13914;48.178;11.716;2023-04-24T13:34:52;14.00;32.10
26164;DHT22;13914;48.178;11.716;2023-04-24T13:37:20;14.10;32.70
26164;DHT22;13914;48.178;11.716;2023-04-24T13:39:47;14.10;32.50
26164;DHT22;13914;48.178;11.716;2023-04-24T13:42:13;14.10;31.60
26164;DHT22;13914;48.178;11.716;2023-04-24T13:44:39;14.10;31.10
26164;DHT22;13914;48.178;11.716;2023-04-24T13:47:05;14.10;31.10
26164;DHT22;13914;48.178;11.716;2023-04-24T13:49:31;14.20;30.30
26164;DHT22;13914;48.178;11.716;2023-04-24T13:51:57;14.20;31.50
26164;DHT22;13914;48.178;11.716;2023-04-24T13:54:22;14.30;31.50
26164;DHT22;13914;48.178;11.716;2023-04-24T13:56:49;14.30;32.20
26164;DHT22;13914;48.178;11.716;2023-04-24T13:59:15;14.30;32.30
26164;DHT22;13914;48.178;11.716;2023-04-24T14:01:40;14.30;32.30
26164;DHT22;13914;48.178;11.716;2023-04-24T14:04:06;14.30;30.10
26164;DHT22;13914;48.178;11.716;2023-04-24T14:06:32;14.30;30.50
26164;DHT22;13914;48.178;11.716;2023-04-24T14:08:58;14.30;31.20
26164;DHT22;13914;48.178;11.716;2023-04-24T14:11:23;14.30;30.20
26164;DHT22;13914;48.178;11.716;2023-04-24T14:13:49;14.30;29.40
26164;DHT22;13914;48.178;11.716;2023-04-24T14:16:15;14.20;29.00
26164;DHT22;13914;48.178;11.716;2023-04-24T14:18:41;14.30;29.10
26164;DHT22;13914;48.178;11.716;2023-04-24T14:21:06;14.30;28.80
26164;DHT22;13914;48.178;11.716;2023-04-24T14:23:33;14.20;28.70
26164;DHT22;13914;48.178;11.716;2023-04-24T14:25:58;14.20;28.50
26164;DHT22;13914;48.178;11.716;2023-04-24T14:28:24;14.20;28.60
26164;DHT22;13914;48.178;11.716;2023-04-24T14:30:51;14.20;29.00
26164;DHT22;13914;48.178;11.716;2023-04-24T14:33:17;14.10;28.80
26164;DHT22;13914;48.178;11.716;2023-04-24T14:35:43;14.10;28.80
26164;DHT22;13914;48.178;11.716;2023-04-24T14:38:09;14.00;28.10
26164;DHT22;13914;48.178;11.716;2023-04-24T14:40:35;14.10;28.30
26164;DHT22;13914;48.178;11.716;2023-04-24T14:43:01;14.10;28.30
26164;DHT22;13914;48.178;11.716;2023-04-24T14:45:27;14.00;28.10
26164;DHT22;13914;48.178;11.716;2023-04-24T14:47:53;14.10;27.80
26164;DHT22;13914;48.178;11.716;2023-04-24T14:50:19;14.10;27.60
26164;DHT22;13914;48.178;11.716;2023-04-24T14:52:45;14.00;27.60
26164;DHT22;13914;48.178;11.716;2023-04-24T14:55:11;14.10;27.30
26164;DHT22;13914;48.178;11.716;2023-04-24T14:57:37;14.00;27.40
26164;DHT22;13914;48.178;11.716;2023-04-24T15:00:04;14.10;27.00
26164;DHT22;13914;48.178;11.716;2023-04-24T15:02:34;14.10;26.70
26164;DHT22;13914;48.178;11.716;2023-04-24T15:05:02;14.00;27.00
26164;DHT22;13914;48.178;11.716;2023-04-24T15:07:28;14.00;26.90
26164;DHT22;13914;48.178;11.716;2023-04-24T15:09:54;14.00;27.20
26164;DHT22;13914;48.178;11.716;2023-04-24T15:12:20;14.00;27.50
26164;DHT22;13914;48.178;11.716;2023-04-24T15:14:46;14.00;27.00
26164;DHT22;13914;48.178;11.716;2023-04-24T15:17:12;14.00;26.10
26164;DHT22;13914;48.178;11.716;2023-04-24T15:19:37;14.00;26.30
26164;DHT22;13914;48.178;11.716;2023-04-24T15:22:03;14.00;27.00
26164;DHT22;13914;48.178;11.716;2023-04-24T15:24:29;14.00;26.30
26164;DHT22;13914;48.178;11.716;2023-04-24T15:26:55;14.00;25.90